CST,Max TemperatureF,Mean TemperatureF,Min TemperatureF,Max Dew PointF,MeanDew PointF,Min DewpointF,Max Humidity, Mean Humidity, Min Humidity, Max Sea Level PressureIn, Mean Sea Level PressureIn, Min Sea Level PressureIn, Max VisibilityMiles, Mean VisibilityMiles, Min VisibilityMiles, Max Wind SpeedMPH, Mean Wind SpeedMPH, Max Gust SpeedMPH,PrecipitationIn, CloudCover, Events, WindDirDegrees
2013-2-1,57,44,28,33,25,17,89,55,22,30.38,30.33,30.27,10,10,10,15,4,23,0.00,0,,338
2013-2-2,63,44,26,45,27,17,85,55,22,30.38,30.27,30.17,10,10,9,10,2,,0.01,1,Rain,225
2013-2-3,64,50,36,46,36,25,97,68,22,30.23,30.16,30.08,10,8,0,13,3,25,0.00,1,Fog,309
2013-2-4,62,48,33,42,35,30,92,64,32,30.12,30.07,30.01,10,10,10,8,1,,0.00,0,,202
2013-2-5,66,57,48,57,53,43,97,89,68,30.07,30.02,29.99,10,7,0,7,1,,0.13,7,Fog-Rain,153
2013-2-6,70,61,52,55,53,49,100,88,55,30.15,30.09,30.05,10,5,0,5,1,,0.01,4,Fog,68
2013-2-7,68,60,52,59,56,50,94,88,68,30.08,29.91,29.79,10,7,1,23,4,31,1.99,7,Rain-Thunderstorm,28
2013-2-8,69,61,52,58,53,45,94,81,61,30.16,30.04,29.93,10,9,2,12,3,17,0.11,7,Rain,345
2013-2-9,64,50,37,43,37,30,92,67,28,30.27,30.21,30.17,10,10,9,10,5,,0.00,0,,48
2013-2-10,73,60,48,61,54,40,100,76,57,30.21,30.11,30.02,10,8,0,30,6,45,2.35,7,Fog-Rain-Thunderstorm,157
2013-2-11,68,62,57,64,59,55,100,93,82,30.12,30.08,30.04,10,8,1,10,3,,1.22,8,Rain-Thunderstorm,29
2013-2-12,62,60,57,58,56,53,96,90,80,30.08,29.92,29.78,10,8,0,10,5,,1.24,8,Fog-Rain-Thunderstorm,35
2013-2-13,61,54,45,61,50,42,100,88,64,30.03,29.88,29.76,10,7,0,15,5,23,0.16,5,Fog-Rain-Thunderstorm,302
2013-2-14,55,46,35,41,38,34,96,79,49,30.13,30.07,30.02,10,8,5,8,3,,0.00,0,,359
2013-2-15,66,48,30,41,35,28,93,71,28,30.15,30.08,30.01,10,8,1,8,1,,0.00,0,,360
2013-2-16,51,43,34,38,25,9,76,48,20,30.25,30.10,30.01,10,10,10,21,8,31,0.00,3,,320
2013-2-17,53,39,25,27,19,8,88,54,19,30.38,30.30,30.25,10,10,10,8,2,,0.00,0,,311
2013-2-18,61,44,28,36,29,24,92,56,28,30.35,30.26,30.11,10,10,10,10,3,20,0.00,0,,167
2013-2-19,66,55,44,57,46,27,94,72,28,30.18,30.08,30.01,10,8,2,14,7,21,0.14,5,Rain,288
2013-2-20,60,45,30,33,25,18,85,51,20,30.22,30.16,30.09,10,10,10,9,2,,0.00,0,,26
2013-2-21,70,50,30,54,35,25,92,56,22,30.14,30.04,29.95,10,10,7,7,2,,0.00,1,,139
2013-2-22,66,62,57,66,60,55,100,94,87,30.00,29.95,29.87,10,5,0,16,5,22,2.34,8,Fog-Rain-Thunderstorm,74
2013-2-23,64,58,53,61,56,51,100,93,86,29.95,29.88,29.80,10,6,0,12,2,18,0.83,8,Fog-Rain-Thunderstorm,4
2013-2-24,72,59,46,52,45,36,100,74,28,30.02,29.95,29.88,10,6,0,9,2,,0.21,3,Fog-Rain-Thunderstorm,42
2013-2-25,62,58,53,59,55,50,100,91,77,29.91,29.78,29.57,10,7,2,12,5,23,2.00,8,Rain-Thunderstorm,94
2013-2-26,66,58,50,61,53,37,100,77,38,29.89,29.62,29.49,10,8,2,17,9,26,0.38,4,Rain-Thunderstorm,234
2013-2-27,60,52,43,42,38,36,89,66,42,30.00,29.94,29.91,10,10,9,9,2,17,0.00,0,,280
2013-2-28,59,49,39,39,33,28,89,57,33,30.04,29.98,29.94,10,10,6,15,5,22,0.00,0,,320